Time;durP1;ratioP1;P1;durP2;ratioP2;P2;SDS_P1;SDS_P2;PMS_P1;PMS_P2;Temp;Humidity;BMP_temperature;BMP_pressure;BME280_temperature;BME280_humidity;BME280_pressure;Samples;Min_cycle;Max_cycle;Signal;HPM_P1;HPM_P2
2022/09/19 05:03:44;;;;;;;5.68;1.20;;;9.60;99.90;;;;;;6196397;23;20111;-80
2022/09/19 05:06:12;;;;;;;5.13;0.77;;;9.60;99.90;;;;;;6170106;23;20171;-77
2022/09/19 05:08:40;;;;;;;3.75;0.60;;;9.60;99.90;;;;;;6143885;23;19992;-74
2022/09/19 05:11:12;;;;;;;5.95;0.82;;;9.60;99.90;;;;;;6195090;23;20008;-75
2022/09/19 05:13:39;;;;;;;3.03;0.70;;;9.60;99.90;;;;;;6144522;23;20008;-75
2022/09/19 05:16:13;;;;;;;5.63;0.80;;;9.50;99.90;;;;;;6169307;23;20348;-77
2022/09/19 05:18:49;;;;;;;3.80;0.77;;;9.60;99.90;;;;;;6144705;23;20016;-76
2022/09/19 05:21:16;;;;;;;6.25;0.82;;;9.60;99.90;;;;;;6144553;23;20017;-77
2022/09/19 05:23:42;;;;;;;4.90;1.10;;;9.60;99.90;;;;;;6144004;23;19997;-80
2022/09/19 05:26:12;;;;;;;7.20;0.88;;;9.70;99.90;;;;;;6168803;23;20041;-76
2022/09/19 05:28:44;;;;;;;7.57;1.02;;;9.70;99.90;;;;;;6144085;23;20092;-76
2022/09/19 05:31:12;;;;;;;4.63;1.40;;;9.70;99.90;;;;;;6169138;23;20016;-76
2022/09/19 05:33:42;;;;;;;7.05;1.30;;;9.70;99.90;;;;;;6145365;23;20009;-77
2022/09/19 05:36:17;;;;;;;4.90;0.90;;;9.80;99.90;;;;;;6169089;23;20290;-76
2022/09/19 05:39:04;;;;;;;6.03;1.10;;;9.80;99.90;;;;;;6169276;23;20032;-76
2022/09/19 05:42:06;;;;;;;5.05;1.23;;;9.80;99.90;;;;;;6168234;23;20370;-76
2022/09/19 05:44:33;;;;;;;6.53;1.20;;;9.80;99.90;;;;;;6144113;23;20012;-75
2022/09/19 05:47:01;;;;;;;6.80;1.27;;;9.80;99.90;;;;;;6144824;23;20009;-77
2022/09/19 05:49:27;;;;;;;7.80;1.08;;;9.90;99.90;;;;;;6195441;23;20001;-76
2022/09/19 05:51:55;;;;;;;6.55;1.05;;;9.90;99.90;;;;;;6168620;23;20005;-75
2022/09/19 05:54:23;;;;;;;5.63;0.80;;;9.90;99.90;;;;;;6168948;23;20056;-75
2022/09/19 05:57:07;;;;;;;4.55;1.10;;;9.90;99.90;;;;;;6195423;23;20036;-74
2022/09/19 05:59:33;;;;;;;8.82;1.40;;;10.00;99.90;;;;;;6168725;23;20009;-78
2022/09/19 06:02:02;;;;;;;6.38;0.70;;;10.00;99.90;;;;;;6162244;23;20016;-79
2022/09/19 06:04:38;;;;;;;5.95;1.27;;;10.00;99.90;;;;;;6168093;23;20053;-76
2022/09/19 06:07:08;;;;;;;7.15;1.13;;;10.00;99.90;;;;;;6168505;23;20005;-79
2022/09/19 06:09:37;;;;;;;8.57;1.10;;;10.10;99.90;;;;;;6167445;23;20009;-74
2022/09/19 06:12:06;;;;;;;5.57;0.98;;;10.10;99.90;;;;;;6167830;23;20005;-74
2022/09/19 06:14:38;;;;;;;8.30;1.83;;;10.20;99.90;;;;;;6166860;23;20007;-74
2022/09/19 06:17:04;;;;;;;4.22;0.90;;;10.30;99.90;;;;;;6192268;23;20004;-75
2022/09/19 06:19:40;;;;;;;7.70;1.10;;;10.30;99.90;;;;;;6171533;23;20017;-75
2022/09/19 06:22:13;;;;;;;9.85;1.10;;;10.40;99.90;;;;;;6133103;23;20029;-75
2022/09/19 06:24:41;;;;;;;8.00;1.23;;;10.50;99.90;;;;;;6132533;23;20033;-76
2022/09/19 06:27:47;;;;;;;5.88;1.05;;;10.50;99.90;;;;;;6108894;23;20010;-74
2022/09/19 06:30:16;;;;;;;5.28;1.00;;;10.60;99.90;;;;;;6109136;23;20249;-74
2022/09/19 06:32:58;;;;;;;5.70;1.00;;;10.60;99.90;;;;;;6133996;23;20006;-76
2022/09/19 06:35:36;;;;;;;13.25;1.30;;;10.60;99.90;;;;;;6107968;23;20176;-75
2022/09/19 06:38:07;;;;;;;7.10;1.37;;;10.70;99.90;;;;;;6132965;23;20295;-75
2022/09/19 06:40:36;;;;;;;8.02;1.17;;;10.70;99.90;;;;;;6132130;23;20010;-76
2022/09/19 06:43:21;;;;;;;9.18;1.30;;;10.70;99.90;;;;;;6112723;23;20002;-74
2022/09/19 06:46:11;;;;;;;7.10;1.30;;;10.80;99.90;;;;;;6108629;23;20002;-76
2022/09/19 06:49:01;;;;;;;6.63;1.25;;;11.00;99.90;;;;;;6099688;23;20199;-75
2022/09/19 06:51:41;;;;;;;7.78;2.65;;;10.90;99.90;;;;;;6107837;23;20021;-76
2022/09/19 06:54:08;;;;;;;7.35;1.02;;;11.00;99.90;;;;;;6108419;23;20006;-74
2022/09/19 06:56:34;;;;;;;9.38;1.88;;;11.10;99.90;;;;;;6107893;23;20033;-74
2022/09/19 06:59:03;;;;;;;7.75;1.48;;;11.10;99.90;;;;;;6108198;23;20002;-74
2022/09/19 07:01:30;;;;;;;5.13;1.10;;;11.20;99.90;;;;;;6107685;23;20029;-74
2022/09/19 07:03:56;;;;;;;6.60;1.10;;;11.20;99.90;;;;;;6107778;23;20155;-75
2022/09/19 07:06:34;;;;;;;6.00;1.13;;;11.30;99.90;;;;;;6108279;23;20202;-75
2022/09/19 07:09:10;;;;;;;7.45;1.42;;;11.40;99.90;;;;;;6132657;23;20199;-75
2022/09/19 07:11:37;;;;;;;8.48;1.17;;;11.40;99.90;;;;;;6107492;23;20002;-75
2022/09/19 07:14:04;;;;;;;7.32;1.30;;;11.30;99.90;;;;;;6132672;23;20073;-74
2022/09/19 07:16:33;;;;;;;6.90;1.50;;;11.40;99.90;;;;;;6107965;23;20002;-74
2022/09/19 07:19:00;;;;;;;6.13;1.10;;;11.60;99.90;;;;;;6107846;23;20024;-74
2022/09/19 07:21:55;;;;;;;8.50;1.45;;;11.50;99.90;;;;;;6080331;23;20006;-74
2022/09/19 07:24:41;;;;;;;9.90;1.70;;;11.50;99.90;;;;;;6107522;23;20013;-74
2022/09/19 07:27:30;;;;;;;9.93;1.58;;;11.60;99.90;;;;;;6117732;23;20284;-74
2022/09/19 07:29:56;;;;;;;5.50;1.17;;;11.70;99.90;;;;;;6107663;23;20228;-74
2022/09/19 07:32:23;;;;;;;7.60;1.05;;;11.60;99.90;;;;;;6108088;23;20029;-74
2022/09/19 07:34:49;;;;;;;8.45;1.83;;;11.70;99.90;;;;;;6107532;23;20009;-75
2022/09/19 07:37:15;;;;;;;9.85;1.40;;;11.60;99.90;;;;;;6133825;23;20009;-75
2022/09/19 07:39:44;;;;;;;7.78;1.17;;;11.50;99.90;;;;;;6108151;23;20180;-74
2022/09/19 07:42:20;;;;;;;6.20;1.10;;;11.60;99.90;;;;;;6108208;23;20013;-73
2022/09/19 07:45:05;;;;;;;5.65;1.45;;;11.70;99.90;;;;;;6134068;23;20244;-74
2022/09/19 07:47:44;;;;;;;8.63;2.28;;;11.80;99.90;;;;;;6107565;23;20233;-75
2022/09/19 07:50:22;;;;;;;10.55;1.52;;;11.90;99.90;;;;;;6107384;23;20053;-75
2022/09/19 07:53:01;;;;;;;6.28;1.27;;;11.90;99.90;;;;;;6107092;23;20029;-74
2022/09/19 07:55:29;;;;;;;8.40;1.30;;;12.00;99.90;;;;;;6107735;23;20042;-74
2022/09/19 07:57:58;;;;;;;10.20;1.98;;;12.00;99.90;;;;;;6132033;23;20221;-73
2022/09/19 08:00:41;;;;;;;6.03;1.10;;;12.00;99.90;;;;;;6107738;23;20326;-74
2022/09/19 08:03:13;;;;;;;10.85;1.10;;;12.10;99.90;;;;;;6107706;23;20013;-74
2022/09/19 08:05:42;;;;;;;5.75;1.15;;;12.20;99.90;;;;;;6107741;23;20065;-74
2022/09/19 08:08:10;;;;;;;9.80;1.55;;;12.20;99.90;;;;;;6134485;23;19994;-73
2022/09/19 08:10:40;;;;;;;5.75;1.65;;;12.30;99.90;;;;;;6108451;23;20005;-74
2022/09/19 08:13:07;;;;;;;5.47;1.05;;;12.40;99.90;;;;;;6108018;23;20005;-73
2022/09/19 08:15:34;;;;;;;7.93;1.15;;;12.40;99.90;;;;;;6107835;23;20101;-75
2022/09/19 08:18:13;;;;;;;6.97;1.48;;;12.30;99.90;;;;;;6106900;23;20005;-75
2022/09/19 08:20:40;;;;;;;8.40;1.27;;;12.40;99.90;;;;;;6133294;23;20053;-74
2022/09/19 08:23:12;;;;;;;7.05;1.30;;;12.30;99.90;;;;;;6108184;23;20061;-74
2022/09/19 08:25:42;;;;;;;7.45;1.25;;;12.40;99.90;;;;;;6133025;23;20306;-75
2022/09/19 08:28:09;;;;;;;8.52;1.40;;;12.30;99.90;;;;;;6107870;23;20013;-74
2022/09/19 08:30:36;;;;;;;7.43;1.40;;;12.30;99.90;;;;;;6107595;23;20010;-73
2022/09/19 08:33:02;;;;;;;6.90;1.15;;;12.40;99.90;;;;;;6131801;23;20344;-75
2022/09/19 08:35:37;;;;;;;6.13;0.98;;;12.40;99.90;;;;;;6107552;23;19994;-75
2022/09/19 08:38:06;;;;;;;6.93;1.20;;;12.50;99.90;;;;;;6132654;23;20014;-74
2022/09/19 08:40:44;;;;;;;9.75;1.60;;;12.70;99.90;;;;;;6133191;23;20280;-74
2022/09/19 08:43:22;;;;;;;8.27;1.10;;;13.00;99.90;;;;;;6132511;23;20028;-74
2022/09/19 08:46:24;;;;;;;7.05;1.50;;;13.20;99.90;;;;;;6106936;23;20006;-74
2022/09/19 08:49:03;;;;;;;8.00;1.05;;;13.60;99.90;;;;;;6134005;23;20013;-73
2022/09/19 08:51:53;;;;;;;5.40;1.00;;;13.70;99.90;;;;;;6107922;23;20068;-75
2022/09/19 08:54:33;;;;;;;9.77;1.55;;;13.80;99.90;;;;;;6107816;23;20006;-73
2022/09/19 08:57:11;;;;;;;8.73;1.30;;;13.70;99.90;;;;;;6107941;23;20295;-73
2022/09/19 08:59:41;;;;;;;9.68;1.38;;;13.70;99.90;;;;;;6106801;23;20068;-74
2022/09/19 09:02:37;;;;;;;9.43;1.40;;;13.60;99.90;;;;;;6107531;23;20097;-73
2022/09/19 09:05:09;;;;;;;8.95;1.90;;;13.40;99.90;;;;;;6108066;23;20002;-73
2022/09/19 09:07:37;;;;;;;6.65;1.20;;;13.40;99.90;;;;;;6083783;23;20041;-74
2022/09/19 09:10:53;;;;;;;5.80;1.40;;;13.30;99.90;;;;;;6107784;23;20303;-74
2022/09/19 09:13:56;;;;;;;6.47;1.20;;;13.30;99.90;;;;;;6132191;23;20010;-74
2022/09/19 09:16:54;;;;;;;6.45;1.30;;;13.10;99.90;;;;;;6134322;23;20002;-74
2022/09/19 09:20:03;;;;;;;7.95;1.48;;;13.00;99.90;;;;;;6108014;23;20198;-73
2022/09/19 09:22:41;;;;;;;8.85;1.42;;;13.20;99.90;;;;;;6131948;23;20017;-74
2022/09/19 09:25:37;;;;;;;8.70;1.25;;;13.10;99.90;;;;;;6133183;23;20018;-73
2022/09/19 09:28:18;;;;;;;6.60;1.23;;;13.50;99.90;;;;;;6132833;23;20074;-73
2022/09/19 09:31:25;;;;;;;9.90;1.48;;;13.70;99.90;;;;;;6107834;23;20064;-74
2022/09/19 09:34:07;;;;;;;6.18;1.30;;;13.80;99.90;;;;;;6109438;23;20318;-75
2022/09/19 09:36:42;;;;;;;7.75;1.02;;;13.90;99.90;;;;;;6109320;23;20006;-74
2022/09/19 09:39:32;;;;;;;4.50;0.88;;;14.00;99.90;;;;;;6113904;23;20037;-72
2022/09/19 09:42:04;;;;;;;8.32;0.93;;;14.10;99.90;;;;;;6142889;23;20029;-72
2022/09/19 09:44:57;;;;;;;5.82;1.30;;;14.00;99.90;;;;;;6118537;23;20033;-73
2022/09/19 09:47:59;;;;;;;5.78;1.10;;;13.80;99.90;;;;;;6114147;23;20006;-74
2022/09/19 09:50:34;;;;;;;5.85;1.27;;;13.80;99.90;;;;;;6110394;23;20068;-73
2022/09/19 09:53:26;;;;;;;6.78;1.17;;;13.60;99.90;;;;;;6109891;23;20006;-74
2022/09/19 09:56:37;;;;;;;7.93;1.00;;;13.50;99.90;;;;;;6133890;23;20013;-74
2022/09/19 10:06:04;;;;;;;5.53;1.15;;;13.60;99.90;;;;;;6016267;23;20035;-74
2022/09/19 10:08:56;;;;;;;5.03;1.20;;;13.90;99.90;;;;;;5993952;23;20076;-74
2022/09/19 10:11:32;;;;;;;7.13;0.98;;;14.30;99.90;;;;;;6006056;23;20012;-72
2022/09/19 10:14:01;;;;;;;4.43;0.80;;;14.50;99.50;;;;;;6016208;23;20086;-75
2022/09/19 10:16:33;;;;;;;4.72;0.93;;;14.90;99.00;;;;;;5993460;23;20015;-73
2022/09/19 10:19:17;;;;;;;5.97;1.17;;;15.30;98.40;;;;;;5992634;23;20028;-73
2022/09/19 10:21:43;;;;;;;4.75;0.90;;;15.70;97.20;;;;;;6015929;23;20225;-73
2022/09/19 10:24:50;;;;;;;3.88;0.93;;;15.60;97.00;;;;;;5993403;23;20043;-75
2022/09/19 10:27:49;;;;;;;4.75;0.85;;;15.70;97.40;;;;;;5994120;23;20372;-73
2022/09/19 10:30:35;;;;;;;4.03;1.00;;;16.20;96.40;;;;;;5993479;23;20075;-75
2022/09/19 10:33:25;;;;;;;2.72;0.50;;;16.20;96.20;;;;;;5993422;23;20007;-74
2022/09/19 10:35:58;;;;;;;3.00;0.73;;;16.10;95.90;;;;;;6016759;23;20318;-74
2022/09/19 10:38:26;;;;;;;4.13;1.00;;;16.00;96.50;;;;;;6049304;23;20007;-74
2022/09/19 10:41:00;;;;;;;5.63;0.95;;;16.00;96.60;;;;;;6079302;23;20002;-74
2022/09/19 10:43:55;;;;;;;5.10;1.02;;;15.80;96.60;;;;;;6101978;23;20014;-75
2022/09/19 10:46:31;;;;;;;7.78;1.20;;;15.30;97.40;;;;;;6062700;23;20014;-73
2022/09/19 10:49:26;;;;;;;3.47;1.00;;;15.60;97.80;;;;;;6073188;23;20011;-74
2022/09/19 10:51:56;;;;;;;5.55;1.00;;;15.80;97.30;;;;;;6073312;23;20181;-73
2022/09/19 10:54:36;;;;;;;;;;;15.90;96.40;;;;;;6074523;23;20011;-75
2022/09/19 10:57:04;;;;;;;3.65;0.90;;;16.00;96.70;;;;;;6049712;23;20165;-74
2022/09/19 10:59:38;;;;;;;4.13;0.90;;;16.40;95.80;;;;;;6049824;23;20010;-75
2022/09/19 11:02:24;;;;;;;3.67;0.88;;;16.70;95.50;;;;;;6054530;23;20010;-75
2022/09/19 11:05:02;;;;;;;7.05;0.80;;;16.80;95.50;;;;;;6101825;23;20102;-74
2022/09/19 11:07:48;;;;;;;2.75;0.75;;;17.00;95.30;;;;;;6078787;23;20327;-73
2022/09/19 11:10:37;;;;;;;4.15;0.70;;;17.00;94.40;;;;;;6102234;23;20026;-73
2022/09/19 11:13:20;;;;;;;3.88;0.70;;;16.90;94.60;;;;;;6102302;23;20010;-73
2022/09/19 11:16:16;;;;;;;4.45;0.70;;;16.40;94.90;;;;;;6077577;23;20046;-74
2022/09/19 11:19:20;;;;;;;5.68;0.75;;;16.10;95.90;;;;;;6103170;23;20009;-74
2022/09/19 11:22:13;;;;;;;5.47;0.80;;;16.10;96.40;;;;;;6102935;23;20026;-74
2022/09/19 11:25:14;;;;;;;3.58;0.70;;;15.70;96.30;;;;;;6104678;23;20170;-74
2022/09/19 11:28:01;;;;;;;4.00;0.60;;;15.30;97.10;;;;;;6051626;23;20046;-73
2022/09/19 11:30:31;;;;;;;3.13;0.70;;;15.20;97.30;;;;;;6103195;23;20007;-73
2022/09/19 11:33:06;;;;;;;3.97;0.95;;;15.20;97.50;;;;;;6079156;23;19994;-73
2022/09/19 11:36:25;;;;;;;2.67;0.70;;;15.10;97.60;;;;;;6088037;23;20010;-73
2022/09/19 11:39:01;;;;;;;3.67;0.90;;;15.00;97.80;;;;;;6103785;23;20050;-73
2022/09/19 11:41:32;;;;;;;4.43;0.70;;;14.90;97.90;;;;;;6103162;23;20019;-73
2022/09/19 11:44:18;;;;;;;5.45;0.95;;;14.90;98.10;;;;;;6078985;23;20010;-73
2022/09/19 11:47:02;;;;;;;4.68;0.90;;;14.90;98.20;;;;;;6078786;23;20062;-73
2022/09/19 11:50:14;;;;;;;3.92;0.60;;;14.90;98.20;;;;;;6079362;23;20015;-73
2022/09/19 11:53:03;;;;;;;3.95;0.60;;;14.90;98.00;;;;;;6078210;23;20356;-74
2022/09/19 11:56:13;;;;;;;5.93;1.13;;;14.90;98.50;;;;;;6102699;23;20006;-74
2022/09/19 11:59:03;;;;;;;3.85;0.65;;;15.00;99.90;;;;;;6104413;23;20007;-74
2022/09/19 12:01:38;;;;;;;7.05;1.27;;;15.10;99.80;;;;;;6079353;23;20058;-74
2022/09/19 12:04:07;;;;;;;5.63;1.08;;;15.10;98.90;;;;;;6107481;23;20239;-73
2022/09/19 12:07:01;;;;;;;4.38;0.85;;;15.00;98.70;;;;;;6106843;23;20390;-74
2022/09/19 12:09:31;;;;;;;4.63;0.70;;;15.00;99.00;;;;;;6132882;23;20001;-74
2022/09/19 12:12:11;;;;;;;4.13;0.70;;;15.10;99.20;;;;;;6106732;23;20018;-75
2022/09/19 12:14:58;;;;;;;2.92;0.70;;;15.30;98.20;;;;;;6106834;23;20014;-74
2022/09/19 12:17:32;;;;;;;3.67;0.90;;;15.60;98.30;;;;;;6083498;23;20072;-74
2022/09/19 12:20:23;;;;;;;4.03;0.80;;;15.70;97.90;;;;;;6106531;23;20017;-74
2022/09/19 12:26:41;;;;;;;4.03;0.55;;;16.40;96.70;;;;;;6107643;23;20006;-77
2022/09/19 12:29:19;;;;;;;3.85;0.85;;;16.80;96.10;;;;;;6095272;23;20006;-76
2022/09/19 12:31:51;;;;;;;4.25;0.93;;;17.10;96.40;;;;;;6106976;23;20013;-76
2022/09/19 12:34:47;;;;;;;4.05;0.90;;;17.40;94.90;;;;;;6132825;23;20056;-75
2022/09/19 12:37:32;;;;;;;2.95;0.57;;;18.30;94.00;;;;;;6107074;23;20351;-75
2022/09/19 12:40:16;;;;;;;1.95;0.40;;;19.70;91.50;;;;;;6107223;23;20018;-74
2022/09/19 12:42:56;;;;;;;2.47;0.50;;;20.90;88.60;;;;;;6083780;23;20014;-76
2022/09/19 12:45:44;;;;;;;2.88;0.60;;;22.10;83.40;;;;;;6132656;23;20013;-73
2022/09/19 12:48:37;;;;;;;4.80;0.77;;;22.60;81.50;;;;;;6107514;23;20018;-76
2022/09/19 12:52:10;;;;;;;2.70;0.47;;;23.70;79.10;;;;;;6090068;23;20016;-74
2022/09/19 12:54:52;;;;;;;3.75;0.70;;;22.60;78.70;;;;;;6107514;23;20338;-75
2022/09/19 12:57:35;;;;;;;4.80;0.63;;;21.90;78.50;;;;;;6107965;23;20029;-75
2022/09/19 13:00:20;;;;;;;3.92;0.60;;;20.80;81.80;;;;;;6133510;23;20199;-77
2022/09/19 13:03:43;;;;;;;3.40;0.68;;;20.00;84.30;;;;;;6132738;23;20037;-76
2022/09/19 13:06:20;;;;;;;4.93;0.73;;;19.40;86.30;;;;;;5993108;23;20008;-76
2022/09/19 13:09:09;;;;;;;4.03;0.70;;;18.90;87.60;;;;;;6124840;23;20006;-74
2022/09/19 13:11:59;;;;;;;2.90;0.52;;;18.70;88.00;;;;;;6085215;23;20009;-75
2022/09/19 13:14:44;;;;;;;3.33;0.70;;;18.60;88.50;;;;;;6086886;23;20061;-75
2022/09/19 13:23:30;;;;;;;1.83;0.47;;;22.60;78.60;;;;;;6136526;23;20171;-73
2022/09/19 13:26:24;;;;;;;4.28;0.70;;;22.40;77.20;;;;;;6134437;23;20317;-75
2022/09/19 13:29:20;;;;;;;4.32;0.82;;;21.10;81.50;;;;;;6108190;23;20013;-75
2022/09/19 13:32:01;;;;;;;3.25;0.68;;;20.20;82.20;;;;;;6108555;23;20002;-74
2022/09/19 13:34:41;;;;;;;2.45;0.60;;;19.30;84.80;;;;;;6108838;23;20006;-73
2022/09/19 13:37:29;;;;;;;4.55;0.85;;;20.00;85.10;;;;;;6108670;23;20002;-72
2022/09/19 13:40:13;;;;;;;4.30;1.10;;;19.70;84.60;;;;;;6133430;23;20046;-71
2022/09/19 13:43:09;;;;;;;4.07;0.50;;;20.70;82.80;;;;;;6134203;23;20065;-73
2022/09/19 13:45:49;;;;;;;3.10;0.70;;;21.50;80.20;;;;;;6108372;23;20006;-75
2022/09/19 13:48:19;;;;;;;2.13;0.50;;;22.20;77.20;;;;;;6108707;23;20013;-72
2022/09/19 13:50:53;;;;;;;2.58;0.38;;;21.60;77.70;;;;;;6108042;23;20070;-74
2022/09/19 13:53:33;;;;;;;3.88;0.85;;;21.30;80.20;;;;;;6134648;23;20005;-73
2022/09/19 13:56:01;;;;;;;3.75;0.82;;;21.50;80.00;;;;;;6133994;23;20311;-73
2022/09/19 13:58:39;;;;;;;3.83;0.57;;;21.50;79.00;;;;;;6134574;23;19994;-72
2022/09/19 14:01:12;;;;;;;4.30;0.50;;;21.60;77.60;;;;;;6132887;23;20300;-72
2022/09/19 14:03:44;;;;;;;2.28;0.50;;;23.10;75.40;;;;;;6133264;23;20442;-71
2022/09/19 14:06:20;;;;;;;3.00;0.85;;;24.80;72.80;;;;;;6134308;23;19998;-72
2022/09/19 14:09:08;;;;;;;3.20;0.63;;;24.80;70.20;;;;;;6133506;23;20009;-72
2022/09/19 14:11:34;;;;;;;2.67;0.60;;;24.10;71.00;;;;;;6088224;23;20049;-71
2022/09/19 14:13:59;;;;;;;3.25;0.45;;;23.00;73.30;;;;;;6133229;23;20002;-71
2022/09/19 14:16:37;;;;;;;2.85;0.60;;;22.40;74.10;;;;;;6134431;23;20237;-71
2022/09/19 14:19:23;;;;;;;2.27;0.63;;;22.80;75.10;;;;;;6133946;23;20311;-72
2022/09/19 14:21:55;;;;;;;3.13;0.70;;;22.90;75.70;;;;;;6133294;23;20006;-70
2022/09/19 14:24:46;;;;;;;2.90;0.60;;;24.20;73.50;;;;;;6133460;23;20002;-71
2022/09/19 14:27:20;;;;;;;2.17;0.52;;;26.20;68.70;;;;;;6121520;23;20006;-70
2022/09/19 14:30:14;;;;;;;1.55;0.38;;;27.10;66.10;;;;;;6138017;23;20119;-71
2022/09/19 14:32:47;;;;;;;1.40;0.43;;;25.30;68.10;;;;;;6141828;23;20181;-70
2022/09/19 14:35:34;;;;;;;2.88;0.45;;;22.90;74.30;;;;;;6141179;23;20002;-71
2022/09/19 14:38:15;;;;;;;2.20;0.60;;;21.50;82.90;;;;;;6133726;23;20292;-71
2022/09/19 14:40:56;;;;;;;2.90;0.40;;;20.30;82.40;;;;;;6134064;23;20006;-71
2022/09/19 14:43:50;;;;;;;3.08;0.40;;;19.40;86.20;;;;;;6134327;23;20014;-71
2022/09/19 14:46:28;;;;;;;1.45;0.32;;;19.10;90.00;;;;;;6108211;23;20010;-71
2022/09/19 14:49:17;;;;;;;2.70;0.85;;;18.90;90.60;;;;;;6133007;23;20006;-71
2022/09/19 14:52:08;;;;;;;1.67;0.30;;;18.60;91.90;;;;;;6133302;23;20168;-72
2022/09/19 14:54:42;;;;;;;1.45;0.35;;;18.30;91.20;;;;;;6133634;23;20001;-73
2022/09/19 14:57:16;;;;;;;2.88;0.80;;;18.10;93.70;;;;;;6107924;23;20002;-72
2022/09/19 14:59:44;;;;;;;1.40;0.30;;;17.70;95.40;;;;;;6133109;23;20065;-72
2022/09/19 15:02:18;;;;;;;2.00;0.47;;;17.30;96.00;;;;;;6107033;23;20041;-71
2022/09/19 15:04:51;;;;;;;2.45;0.52;;;16.80;96.30;;;;;;6106827;23;20017;-71
2022/09/19 15:07:24;;;;;;;2.30;0.57;;;16.70;98.00;;;;;;6133065;23;20212;-71
2022/09/19 15:09:49;;;;;;;1.88;0.47;;;16.30;97.10;;;;;;6132566;23;20005;-70
2022/09/19 15:12:30;;;;;;;2.03;0.63;;;16.20;98.10;;;;;;6132820;23;20276;-71
2022/09/19 15:14:56;;;;;;;1.65;0.50;;;16.20;97.90;;;;;;6107102;23;20478;-71
2022/09/19 15:17:29;;;;;;;3.95;0.70;;;16.20;98.10;;;;;;6132986;23;20024;-75
2022/09/19 15:20:16;;;;;;;3.13;0.70;;;16.10;97.00;;;;;;6082628;23;20018;-76
2022/09/19 15:22:51;;;;;;;4.50;0.90;;;16.20;98.60;;;;;;6106905;23;20189;-73
2022/09/19 15:25:30;;;;;;;4.90;0.90;;;15.80;97.20;;;;;;6132790;23;20053;-72
2022/09/19 15:28:02;;;;;;;3.65;0.82;;;15.60;98.60;;;;;;6132706;23;20214;-72
2022/09/19 15:30:33;;;;;;;4.30;0.70;;;15.70;98.80;;;;;;6107223;23;20006;-72
2022/09/19 15:33:13;;;;;;;2.70;0.43;;;15.80;98.60;;;;;;6132583;23;20009;-72
2022/09/19 15:35:43;;;;;;;3.40;0.50;;;15.60;97.50;;;;;;6106499;23;20244;-71
2022/09/19 15:38:18;;;;;;;6.90;1.63;;;16.00;97.30;;;;;;6132720;23;20001;-72
2022/09/19 15:40:45;;;;;;;3.28;0.80;;;16.00;96.80;;;;;;6105490;23;20010;-74
2022/09/19 15:43:13;;;;;;;5.13;0.70;;;15.90;97.80;;;;;;6132552;23;20002;-74
2022/09/19 15:45:47;;;;;;;3.75;0.82;;;16.00;97.00;;;;;;6131442;23;20288;-74
2022/09/19 15:48:19;;;;;;;3.78;0.88;;;16.10;96.40;;;;;;6106333;23;20006;-73
2022/09/19 15:50:51;;;;;;;7.10;0.98;;;16.40;96.60;;;;;;6131413;23;20006;-73
2022/09/19 15:53:43;;;;;;;3.35;0.80;;;18.50;94.80;;;;;;6132062;23;20058;-73
2022/09/19 15:56:18;;;;;;;3.38;0.60;;;21.50;90.10;;;;;;6127377;23;20006;-73
2022/09/19 15:58:55;;;;;;;2.72;0.80;;;23.10;84.70;;;;;;6131630;23;20014;-71
2022/09/19 16:01:24;;;;;;;3.75;0.77;;;23.30;78.70;;;;;;6131675;23;20296;-74
2022/09/19 16:04:18;;;;;;;3.08;1.00;;;22.40;80.50;;;;;;6102013;23;20011;-74
2022/09/19 16:09:43;;;;;;;6.22;3.28;;;24.80;76.20;;;;;;6102221;23;20054;-75
2022/09/19 16:12:33;;;;;;;2.97;0.70;;;24.00;75.00;;;;;;6102997;23;20018;-73
2022/09/19 16:15:01;;;;;;;2.65;0.80;;;23.10;78.20;;;;;;6102673;23;20089;-74
2022/09/19 16:17:52;;;;;;;2.92;0.77;;;21.70;80.00;;;;;;6102690;23;20017;-74
2022/09/19 16:20:29;;;;;;;3.13;0.80;;;20.20;86.70;;;;;;6102035;23;20010;-73
2022/09/19 16:22:59;;;;;;;4.13;1.10;;;18.90;90.50;;;;;;6102154;23;20062;-74
2022/09/19 16:25:27;;;;;;;4.38;0.95;;;18.00;92.70;;;;;;6102408;23;20009;-74
2022/09/19 16:27:53;;;;;;;5.27;0.80;;;17.20;96.00;;;;;;6102073;23;20022;-74
2022/09/19 16:30:19;;;;;;;4.30;1.38;;;16.60;97.30;;;;;;6077831;23;20446;-73
2022/09/19 16:32:45;;;;;;;4.03;0.88;;;16.10;99.00;;;;;;6103235;23;20002;-73
2022/09/19 16:35:17;;;;;;;3.83;0.90;;;15.80;99.90;;;;;;6104462;23;20006;-73
2022/09/19 16:37:50;;;;;;;2.88;0.75;;;15.30;99.90;;;;;;6103651;23;20125;-73
2022/09/19 16:40:27;;;;;;;3.30;1.00;;;15.00;99.90;;;;;;6102115;23;20011;-73
2022/09/19 16:42:53;;;;;;;2.65;1.00;;;15.00;99.90;;;;;;6076606;23;20058;-73
2022/09/19 16:45:36;;;;;;;3.30;0.80;;;14.80;99.90;;;;;;6103405;23;20018;-73
2022/09/19 16:48:02;;;;;;;4.55;0.90;;;14.70;99.90;;;;;;6080348;23;20006;-74
2022/09/19 16:50:39;;;;;;;4.53;1.60;;;14.60;99.90;;;;;;6108433;23;20058;-75
2022/09/19 16:53:12;;;;;;;3.35;0.90;;;14.40;99.90;;;;;;6082537;23;20010;-75
2022/09/19 16:55:45;;;;;;;3.70;1.15;;;14.10;99.90;;;;;;6082433;23;20010;-77
2022/09/19 16:58:15;;;;;;;3.00;0.98;;;14.00;99.90;;;;;;6107647;23;20052;-74
2022/09/19 17:00:45;;;;;;;4.05;1.02;;;13.80;99.90;;;;;;6105874;23;20017;-74
2022/09/19 17:03:14;;;;;;;2.47;1.20;;;13.80;99.90;;;;;;6128079;23;20045;-73
2022/09/19 17:05:41;;;;;;;2.85;1.00;;;13.70;99.90;;;;;;6136282;23;20269;-74
2022/09/19 17:08:06;;;;;;;3.30;1.13;;;13.50;99.90;;;;;;6136304;23;20010;-74
2022/09/19 17:10:40;;;;;;;3.65;1.38;;;13.50;99.90;;;;;;6109982;23;20060;-73
2022/09/19 17:13:15;;;;;;;4.65;1.60;;;13.60;99.90;;;;;;6110617;23;20065;-76
2022/09/19 17:15:57;;;;;;;4.25;1.13;;;13.60;99.90;;;;;;6136020;23;20237;-76
2022/09/19 17:18:24;;;;;;;2.67;1.17;;;13.50;99.90;;;;;;6086058;23;20275;-76
2022/09/19 17:20:55;;;;;;;4.03;1.17;;;13.50;99.90;;;;;;6136124;23;20018;-74
2022/09/19 17:23:31;;;;;;;3.50;1.48;;;13.50;99.90;;;;;;6099092;23;20029;-75
2022/09/19 17:26:00;;;;;;;3.28;1.10;;;13.40;99.90;;;;;;6136551;23;20002;-74
2022/09/19 17:28:29;;;;;;;2.80;0.82;;;13.40;99.90;;;;;;6137030;23;20002;-76
2022/09/19 17:30:59;;;;;;;4.05;1.08;;;13.20;99.90;;;;;;6135507;23;20010;-73
2022/09/19 17:33:27;;;;;;;3.38;0.90;;;13.00;99.90;;;;;;6125571;23;20006;-74
2022/09/19 17:36:01;;;;;;;3.92;1.40;;;12.90;99.90;;;;;;6111067;23;20049;-76
2022/09/19 17:38:39;;;;;;;5.90;1.30;;;12.70;99.90;;;;;;6091100;23;20010;-78
2022/09/19 17:41:05;;;;;;;4.63;1.30;;;12.60;99.90;;;;;;6110987;23;20221;-76
2022/09/19 17:43:32;;;;;;;5.28;1.65;;;12.60;99.90;;;;;;6135388;23;20006;-78
2022/09/19 17:46:03;;;;;;;3.72;1.27;;;12.40;99.90;;;;;;6110691;23;20005;-78
2022/09/19 17:48:33;;;;;;;3.58;1.42;;;12.30;99.90;;;;;;6087360;23;20064;-77
2022/09/19 17:51:19;;;;;;;4.18;1.55;;;12.30;99.90;;;;;;6111121;23;20037;-79
2022/09/19 17:53:56;;;;;;;4.97;1.67;;;12.20;99.90;;;;;;6110092;23;20017;-77
2022/09/19 17:56:36;;;;;;;4.05;1.52;;;12.40;99.90;;;;;;6087439;23;20010;-79
2022/09/19 17:59:55;;;;;;;;;;;;;;;;;;;;;
2022/09/19 18:06:00;;;;;;;4.97;1.92;;;12.40;99.90;;;;;;6116770;23;20326;-76
2022/09/19 18:08:31;;;;;;;5.55;1.92;;;12.30;99.90;;;;;;6110047;23;20006;-76
2022/09/19 18:11:04;;;;;;;4.70;1.77;;;12.40;99.90;;;;;;6135723;23;20009;-76
2022/09/19 18:13:36;;;;;;;3.63;1.55;;;12.40;99.90;;;;;;6109996;23;20295;-77
2022/09/19 18:16:10;;;;;;;4.70;1.73;;;12.40;99.90;;;;;;6135366;23;20057;-75
2022/09/19 18:18:37;;;;;;;3.50;1.98;;;12.50;99.90;;;;;;6135346;23;20002;-76
2022/09/19 18:21:04;;;;;;;10.55;6.57;;;12.40;99.90;;;;;;6136030;23;20012;-76
2022/09/19 18:23:31;;;;;;;6.57;2.53;;;12.30;99.90;;;;;;6111133;23;19998;-74
2022/09/19 18:25:58;;;;;;;4.43;2.38;;;12.30;99.90;;;;;;6110839;23;20021;-75
2022/09/19 18:28:29;;;;;;;8.90;5.93;;;12.30;99.90;;;;;;6137156;23;20005;-77
2022/09/19 18:30:57;;;;;;;11.52;8.13;;;12.30;99.90;;;;;;6110897;23;20073;-78
2022/09/19 18:33:24;;;;;;;;;;;12.30;99.90;;;;;;6111877;23;20077;-75
2022/09/19 18:35:51;;;;;;;6.85;3.60;;;12.30;99.90;;;;;;6110573;23;19908;-76
2022/09/19 18:38:18;;;;;;;5.10;2.38;;;12.30;99.90;;;;;;6110896;23;20017;-77
2022/09/19 18:40:45;;;;;;;3.60;1.98;;;12.30;99.90;;;;;;6110446;23;20069;-74
2022/09/19 18:43:12;;;;;;;4.55;1.70;;;12.20;99.90;;;;;;6136782;23;20024;-76
2022/09/19 18:45:39;;;;;;;4.45;2.30;;;12.10;99.90;;;;;;6110417;23;20005;-75
2022/09/19 18:48:04;;;;;;;6.55;2.88;;;12.10;99.90;;;;;;6109684;23;20069;-75
2022/09/19 18:50:30;;;;;;;7.65;2.70;;;12.00;99.90;;;;;;6109759;23;20013;-75
2022/09/19 18:52:56;;;;;;;4.75;2.17;;;11.90;99.90;;;;;;6133095;23;20014;-76
2022/09/19 18:55:23;;;;;;;3.38;2.00;;;11.90;99.90;;;;;;6109497;23;20013;-76
2022/09/19 18:57:51;;;;;;;5.82;2.30;;;11.80;99.90;;;;;;6085902;23;20010;-76
2022/09/19 19:00:17;;;;;;;5.90;2.33;;;11.80;99.90;;;;;;6110340;23;20017;-75
2022/09/19 19:02:42;;;;;;;6.20;2.88;;;11.60;99.90;;;;;;6127172;23;20010;-77
2022/09/19 19:05:08;;;;;;;6.22;2.20;;;11.50;99.90;;;;;;6107463;23;20300;-77
2022/09/19 19:07:34;;;;;;;5.72;2.22;;;11.40;99.90;;;;;;6106817;23;20006;-77